sensor_id;sensor_type;location;lat;lon;timestamp;pressure;altitude;pressure_sealevel;temperature;humidity
56912;BME280;42800;53.928;27.662;2023-08-06T00:00:37;99125.84;;;22.87;100.00
56912;BME280;42800;53.928;27.662;2023-08-06T00:03:03;99126.84;;;22.81;100.00
56912;BME280;42800;53.928;27.662;2023-08-06T00:05:29;99114.00;;;22.70;100.00
56912;BME280;42800;53.928;27.662;2023-08-06T00:07:55;99120.25;;;22.62;100.00
56912;BME280;42800;53.928;27.662;2023-08-06T00:10:21;99109.97;;;22.71;100.00
56912;BME280;42800;53.928;27.662;2023-08-06T00:12:47;99119.81;;;22.76;100.00
56912;BME280;42800;53.928;27.662;2023-08-06T00:15:14;99110.75;;;22.72;100.00
56912;BME280;42800;53.928;27.662;2023-08-06T00:17:40;99113.41;;;22.75;100.00
56912;BME280;42800;53.928;27.662;2023-08-06T00:20:07;99112.34;;;22.73;100.00
56912;BME280;42800;53.928;27.662;2023-08-06T00:22:34;99127.88;;;22.61;100.00
56912;BME280;42800;53.928;27.662;2023-08-06T00:25:00;99116.34;;;22.72;100.00
56912;BME280;42800;53.928;27.662;2023-08-06T00:27:26;99119.72;;;22.54;100.00
56912;BME280;42800;53.928;27.662;2023-08-06T00:29:52;99123.41;;;22.51;100.00
56912;BME280;42800;53.928;27.662;2023-08-06T00:32:19;99111.22;;;22.45;100.00
56912;BME280;42800;53.928;27.662;2023-08-06T00:34:45;99106.63;;;22.51;100.00
56912;BME280;42800;53.928;27.662;2023-08-06T00:37:11;99113.22;;;22.31;100.00
56912;BME280;42800;53.928;27.662;2023-08-06T00:39:37;99106.41;;;22.20;100.00
56912;BME280;42800;53.928;27.662;2023-08-06T00:42:03;99104.94;;;22.28;100.00
56912;BME280;42800;53.928;27.662;2023-08-06T00:44:29;99099.25;;;22.31;100.00
56912;BME280;42800;53.928;27.662;2023-08-06T00:46:55;99090.88;;;22.31;100.00
56912;BME280;42800;53.928;27.662;2023-08-06T00:49:22;99080.03;;;22.21;100.00
56912;BME280;42800;53.928;27.662;2023-08-06T00:51:48;99085.16;;;22.09;100.00
56912;BME280;42800;53.928;27.662;2023-08-06T00:54:15;99078.91;;;22.18;100.00
56912;BME280;42800;53.928;27.662;2023-08-06T00:56:42;99079.00;;;22.15;100.00
56912;BME280;42800;53.928;27.662;2023-08-06T00:59:08;99090.97;;;22.15;100.00
56912;BME280;42800;53.928;27.662;2023-08-06T01:01:36;99077.38;;;22.30;100.00
56912;BME280;42800;53.928;27.662;2023-08-06T01:04:02;99082.28;;;22.26;100.00
56912;BME280;42800;53.928;27.662;2023-08-06T01:06:35;99069.59;;;22.08;100.00
56912;BME280;42800;53.928;27.662;2023-08-06T01:09:11;99066.94;;;22.05;100.00
56912;BME280;42800;53.928;27.662;2023-08-06T01:11:47;99071.31;;;22.06;100.00
56912;BME280;42800;53.928;27.662;2023-08-06T01:14:29;99061.94;;;22.13;100.00
56912;BME280;42800;53.928;27.662;2023-08-06T01:16:58;99060.56;;;22.04;100.00
56912;BME280;42800;53.928;27.662;2023-08-06T01:19:25;99063.81;;;22.03;100.00
56912;BME280;42800;53.928;27.662;2023-08-06T01:21:52;99055.94;;;21.72;100.00
56912;BME280;42800;53.928;27.662;2023-08-06T01:24:18;99037.31;;;21.82;100.00
56912;BME280;42800;53.928;27.662;2023-08-06T01:26:48;99037.34;;;21.95;100.00
56912;BME280;42800;53.928;27.662;2023-08-06T01:29:22;99048.84;;;21.97;100.00
56912;BME280;42800;53.928;27.662;2023-08-06T01:31:50;99037.22;;;21.73;100.00
56912;BME280;42800;53.928;27.662;2023-08-06T01:34:19;99012.00;;;21.76;100.00
56912;BME280;42800;53.928;27.662;2023-08-06T01:36:46;99024.13;;;21.82;100.00
56912;BME280;42800;53.928;27.662;2023-08-06T01:39:13;99031.50;;;21.89;100.00
56912;BME280;42800;53.928;27.662;2023-08-06T01:41:39;99027.16;;;21.75;100.00
56912;BME280;42800;53.928;27.662;2023-08-06T01:44:05;99012.78;;;21.77;100.00
56912;BME280;42800;53.928;27.662;2023-08-06T01:46:34;99036.88;;;21.71;100.00
56912;BME280;42800;53.928;27.662;2023-08-06T01:48:59;99036.31;;;21.89;100.00
56912;BME280;42800;53.928;27.662;2023-08-06T01:51:28;99011.19;;;21.63;100.00
56912;BME280;42800;53.928;27.662;2023-08-06T01:53:54;99016.31;;;21.65;100.00
56912;BME280;42800;53.928;27.662;2023-08-06T01:56:21;99015.53;;;21.64;100.00
56912;BME280;42800;53.928;27.662;2023-08-06T01:58:46;99025.03;;;21.67;100.00
56912;BME280;42800;53.928;27.662;2023-08-06T02:01:12;99021.66;;;21.59;100.00
56912;BME280;42800;53.928;27.662;2023-08-06T02:03:38;99016.34;;;21.90;100.00
56912;BME280;42800;53.928;27.662;2023-08-06T02:06:04;99035.19;;;21.73;100.00
56912;BME280;42800;53.928;27.662;2023-08-06T02:08:30;99031.28;;;21.71;100.00
56912;BME280;42800;53.928;27.662;2023-08-06T02:10:56;99015.78;;;21.70;100.00
56912;BME280;42800;53.928;27.662;2023-08-06T02:13:23;99001.81;;;21.57;100.00
56912;BME280;42800;53.928;27.662;2023-08-06T02:15:49;98987.56;;;21.38;100.00
56912;BME280;42800;53.928;27.662;2023-08-06T02:18:15;98952.28;;;21.32;100.00
56912;BME280;42800;53.928;27.662;2023-08-06T02:20:42;98949.91;;;21.47;100.00
56912;BME280;42800;53.928;27.662;2023-08-06T02:23:08;98949.00;;;21.37;100.00
56912;BME280;42800;53.928;27.662;2023-08-06T02:25:34;98939.59;;;21.31;100.00
56912;BME280;42800;53.928;27.662;2023-08-06T02:28:00;98916.81;;;21.20;100.00
56912;BME280;42800;53.928;27.662;2023-08-06T02:30:27;98917.81;;;21.26;100.00
56912;BME280;42800;53.928;27.662;2023-08-06T02:32:53;98912.47;;;21.31;100.00
56912;BME280;42800;53.928;27.662;2023-08-06T02:35:18;98917.09;;;21.38;100.00
56912;BME280;42800;53.928;27.662;2023-08-06T02:37:44;98932.19;;;21.53;100.00
56912;BME280;42800;53.928;27.662;2023-08-06T02:40:11;98920.50;;;21.17;100.00
56912;BME280;42800;53.928;27.662;2023-08-06T02:42:38;98910.75;;;21.08;100.00
56912;BME280;42800;53.928;27.662;2023-08-06T02:45:05;98899.53;;;21.25;100.00
56912;BME280;42800;53.928;27.662;2023-08-06T02:47:32;98897.84;;;21.14;100.00
56912;BME280;42800;53.928;27.662;2023-08-06T02:49:58;98893.19;;;21.24;100.00
56912;BME280;42800;53.928;27.662;2023-08-06T02:52:24;98902.59;;;21.43;100.00
56912;BME280;42800;53.928;27.662;2023-08-06T02:54:50;98913.03;;;21.26;100.00
56912;BME280;42800;53.928;27.662;2023-08-06T02:57:16;98912.03;;;21.20;100.00
56912;BME280;42800;53.928;27.662;2023-08-06T02:59:42;98905.53;;;21.10;100.00
56912;BME280;42800;53.928;27.662;2023-08-06T03:02:08;98908.97;;;21.44;100.00
56912;BME280;42800;53.928;27.662;2023-08-06T03:04:34;98949.16;;;21.84;100.00
56912;BME280;42800;53.928;27.662;2023-08-06T03:07:00;99003.28;;;21.87;100.00
56912;BME280;42800;53.928;27.662;2023-08-06T03:09:26;99024.94;;;21.96;100.00
56912;BME280;42800;53.928;27.662;2023-08-06T03:11:52;99048.41;;;22.11;100.00
56912;BME280;42800;53.928;27.662;2023-08-06T03:14:18;99047.88;;;22.29;100.00
56912;BME280;42800;53.928;27.662;2023-08-06T03:16:44;99088.97;;;22.41;100.00
56912;BME280;42800;53.928;27.662;2023-08-06T03:19:10;99082.47;;;22.83;100.00
56912;BME280;42800;53.928;27.662;2023-08-06T03:21:36;99068.47;;;22.95;100.00
56912;BME280;42800;53.928;27.662;2023-08-06T03:24:02;99027.22;;;23.21;100.00
56912;BME280;42800;53.928;27.662;2023-08-06T03:26:28;98992.91;;;23.21;100.00
56912;BME280;42800;53.928;27.662;2023-08-06T03:28:54;99005.25;;;23.11;100.00
56912;BME280;42800;53.928;27.662;2023-08-06T03:31:20;98927.19;;;23.79;100.00
56912;BME280;42800;53.928;27.662;2023-08-06T03:33:46;98817.22;;;23.69;100.00
56912;BME280;42800;53.928;27.662;2023-08-06T03:36:12;98803.13;;;23.91;100.00
56912;BME280;42800;53.928;27.662;2023-08-06T03:38:38;98757.84;;;23.92;100.00
56912;BME280;42800;53.928;27.662;2023-08-06T03:41:04;98675.72;;;23.95;100.00
56912;BME280;42800;53.928;27.662;2023-08-06T03:43:30;98631.25;;;24.07;100.00
56912;BME280;42800;53.928;27.662;2023-08-06T03:45:56;98540.28;;;24.69;100.00
56912;BME280;42800;53.928;27.662;2023-08-06T03:48:22;98428.72;;;24.58;100.00
56912;BME280;42800;53.928;27.662;2023-08-06T03:50:48;98515.69;;;24.06;100.00
56912;BME280;42800;53.928;27.662;2023-08-06T03:53:14;98375.38;;;24.52;100.00
56912;BME280;42800;53.928;27.662;2023-08-06T03:55:43;98446.13;;;24.38;100.00
56912;BME280;42800;53.928;27.662;2023-08-06T03:58:12;98269.69;;;25.12;100.00
56912;BME280;42800;53.928;27.662;2023-08-06T04:00:38;98386.56;;;24.28;100.00
56912;BME280;42800;53.928;27.662;2023-08-06T04:03:03;98252.97;;;25.03;100.00
56912;BME280;42800;53.928;27.662;2023-08-06T04:05:32;98006.09;;;25.12;100.00
56912;BME280;42800;53.928;27.662;2023-08-06T04:07:58;97904.66;;;25.40;100.00
56912;BME280;42800;53.928;27.662;2023-08-06T04:10:25;97904.03;;;25.56;100.00
56912;BME280;42800;53.928;27.662;2023-08-06T04:12:51;97857.81;;;25.51;100.00
56912;BME280;42800;53.928;27.662;2023-08-06T04:15:17;97811.50;;;25.67;100.00
56912;BME280;42800;53.928;27.662;2023-08-06T04:17:43;97843.25;;;25.47;100.00
56912;BME280;42800;53.928;27.662;2023-08-06T04:20:09;97752.25;;;25.97;100.00
56912;BME280;42800;53.928;27.662;2023-08-06T04:22:35;97629.50;;;26.25;100.00
56912;BME280;42800;53.928;27.662;2023-08-06T04:25:03;97643.72;;;25.88;100.00
56912;BME280;42800;53.928;27.662;2023-08-06T04:27:29;97633.66;;;26.52;100.00
56912;BME280;42800;53.928;27.662;2023-08-06T04:29:55;97627.75;;;26.62;100.00
56912;BME280;42800;53.928;27.662;2023-08-06T04:32:21;97607.03;;;26.14;100.00
56912;BME280;42800;53.928;27.662;2023-08-06T04:34:49;97560.00;;;26.82;100.00
56912;BME280;42800;53.928;27.662;2023-08-06T04:37:15;97546.44;;;26.97;100.00
56912;BME280;42800;53.928;27.662;2023-08-06T04:39:41;97554.38;;;26.93;100.00
56912;BME280;42800;53.928;27.662;2023-08-06T04:42:06;97550.81;;;26.87;100.00
56912;BME280;42800;53.928;27.662;2023-08-06T04:44:32;97543.94;;;26.83;100.00
56912;BME280;42800;53.928;27.662;2023-08-06T04:46:59;97545.38;;;27.17;100.00
56912;BME280;42800;53.928;27.662;2023-08-06T04:49:25;97538.44;;;27.30;100.00
56912;BME280;42800;53.928;27.662;2023-08-06T04:51:51;97557.22;;;26.82;100.00
56912;BME280;42800;53.928;27.662;2023-08-06T04:54:17;97554.84;;;27.14;100.00
56912;BME280;42800;53.928;27.662;2023-08-06T04:56:43;97551.53;;;27.16;100.00
56912;BME280;42800;53.928;27.662;2023-08-06T04:59:08;97573.78;;;28.19;100.00
56912;BME280;42800;53.928;27.662;2023-08-06T05:01:34;97567.03;;;27.92;100.00
56912;BME280;42800;53.928;27.662;2023-08-06T05:04:01;97578.09;;;27.84;100.00
56912;BME280;42800;53.928;27.662;2023-08-06T05:06:27;97614.84;;;28.75;100.00
56912;BME280;42800;53.928;27.662;2023-08-06T05:08:53;97628.34;;;28.52;100.00
56912;BME280;42800;53.928;27.662;2023-08-06T05:11:19;97699.28;;;28.14;100.00
56912;BME280;42800;53.928;27.662;2023-08-06T05:13:45;97744.53;;;29.16;100.00
56912;BME280;42800;53.928;27.662;2023-08-06T05:16:10;97631.69;;;28.56;100.00
56912;BME280;42800;53.928;27.662;2023-08-06T05:18:36;97670.00;;;28.29;100.00
56912;BME280;42800;53.928;27.662;2023-08-06T05:21:03;97706.41;;;28.98;100.00
56912;BME280;42800;53.928;27.662;2023-08-06T05:23:29;97734.00;;;28.81;100.00
56912;BME280;42800;53.928;27.662;2023-08-06T05:25:55;97638.47;;;28.36;100.00
56912;BME280;42800;53.928;27.662;2023-08-06T05:28:21;97629.31;;;27.83;100.00
56912;BME280;42800;53.928;27.662;2023-08-06T05:30:47;97522.19;;;26.89;100.00
56912;BME280;42800;53.928;27.662;2023-08-06T05:33:13;97530.69;;;26.21;100.00
56912;BME280;42800;53.928;27.662;2023-08-06T05:35:40;97572.53;;;25.97;100.00
56912;BME280;42800;53.928;27.662;2023-08-06T05:38:10;97583.53;;;26.17;100.00
56912;BME280;42800;53.928;27.662;2023-08-06T05:40:36;97491.16;;;27.23;100.00
56912;BME280;42800;53.928;27.662;2023-08-06T05:43:02;97486.09;;;27.04;100.00
56912;BME280;42800;53.928;27.662;2023-08-06T05:45:28;97507.72;;;28.14;100.00
56912;BME280;42800;53.928;27.662;2023-08-06T05:47:53;97512.84;;;27.80;100.00
56912;BME280;42800;53.928;27.662;2023-08-06T05:50:23;97532.84;;;27.77;100.00
56912;BME280;42800;53.928;27.662;2023-08-06T05:52:49;97573.22;;;28.87;100.00
56912;BME280;42800;53.928;27.662;2023-08-06T05:55:15;97588.84;;;28.57;100.00
56912;BME280;42800;53.928;27.662;2023-08-06T05:57:41;97585.88;;;28.99;100.00
56912;BME280;42800;53.928;27.662;2023-08-06T06:00:08;97678.66;;;29.08;100.00
56912;BME280;42800;53.928;27.662;2023-08-06T06:02:34;97681.75;;;29.35;100.00
56912;BME280;42800;53.928;27.662;2023-08-06T06:05:00;97669.38;;;29.38;100.00
56912;BME280;42800;53.928;27.662;2023-08-06T06:07:26;97735.69;;;29.80;100.00
56912;BME280;42800;53.928;27.662;2023-08-06T06:09:52;97651.25;;;29.52;100.00
56912;BME280;42800;53.928;27.662;2023-08-06T06:12:19;97792.38;;;30.31;100.00
56912;BME280;42800;53.928;27.662;2023-08-06T06:14:45;97782.88;;;30.10;100.00
56912;BME280;42800;53.928;27.662;2023-08-06T06:17:11;97799.06;;;30.53;100.00
56912;BME280;42800;53.928;27.662;2023-08-06T06:19:40;97773.28;;;30.18;100.00
56912;BME280;42800;53.928;27.662;2023-08-06T06:22:05;97884.00;;;31.23;100.00
56912;BME280;42800;53.928;27.662;2023-08-06T06:24:31;97870.41;;;30.83;100.00
56912;BME280;42800;53.928;27.662;2023-08-06T06:26:57;97896.94;;;31.18;100.00
56912;BME280;42800;53.928;27.662;2023-08-06T06:29:24;97748.03;;;30.01;100.00
56912;BME280;42800;53.928;27.662;2023-08-06T06:31:50;97874.97;;;31.24;100.00
56912;BME280;42800;53.928;27.662;2023-08-06T06:34:16;97879.50;;;30.95;100.00
56912;BME280;42800;53.928;27.662;2023-08-06T06:36:41;97802.66;;;30.53;100.00
56912;BME280;42800;53.928;27.662;2023-08-06T06:39:07;97853.66;;;31.69;100.00
56912;BME280;42800;53.928;27.662;2023-08-06T06:41:33;97935.22;;;31.76;100.00
56912;BME280;42800;53.928;27.662;2023-08-06T06:43:59;97959.28;;;32.01;100.00
56912;BME280;42800;53.928;27.662;2023-08-06T06:46:26;98013.63;;;33.17;100.00
56912;BME280;42800;53.928;27.662;2023-08-06T06:48:52;98050.94;;;32.95;100.00
56912;BME280;42800;53.928;27.662;2023-08-06T06:51:18;97973.47;;;32.47;100.00
56912;BME280;42800;53.928;27.662;2023-08-06T06:53:44;97868.72;;;30.93;100.00
56912;BME280;42800;53.928;27.662;2023-08-06T06:56:13;97953.81;;;31.90;100.00
56912;BME280;42800;53.928;27.662;2023-08-06T06:58:41;97924.72;;;31.71;100.00
56912;BME280;42800;53.928;27.662;2023-08-06T07:01:07;98019.84;;;33.29;100.00
56912;BME280;42800;53.928;27.662;2023-08-06T07:03:35;98006.78;;;32.99;100.00
56912;BME280;42800;53.928;27.662;2023-08-06T07:06:01;98000.09;;;31.60;100.00
56912;BME280;42800;53.928;27.662;2023-08-06T07:08:29;97924.72;;;31.71;100.00
56912;BME280;42800;53.928;27.662;2023-08-06T07:11:00;97958.34;;;32.25;100.00
56912;BME280;42800;53.928;27.662;2023-08-06T07:13:27;98003.03;;;33.04;100.00
56912;BME280;42800;53.928;27.662;2023-08-06T07:15:54;97938.25;;;31.97;100.00
56912;BME280;42800;53.928;27.662;2023-08-06T07:18:20;97884.97;;;31.76;100.00
56912;BME280;42800;53.928;27.662;2023-08-06T07:20:48;97902.38;;;31.67;100.00
56912;BME280;42800;53.928;27.662;2023-08-06T07:23:14;97789.81;;;30.33;100.00
56912;BME280;42800;53.928;27.662;2023-08-06T07:25:40;97825.84;;;31.40;100.00
56912;BME280;42800;53.928;27.662;2023-08-06T07:28:06;97913.22;;;32.54;100.00
56912;BME280;42800;53.928;27.662;2023-08-06T07:30:32;97933.59;;;32.13;100.00
56912;BME280;42800;53.928;27.662;2023-08-06T07:32:58;97944.97;;;32.39;100.00
56912;BME280;42800;53.928;27.662;2023-08-06T07:35:24;97984.81;;;32.47;100.00
56912;BME280;42800;53.928;27.662;2023-08-06T07:37:50;97890.66;;;31.76;100.00
56912;BME280;42800;53.928;27.662;2023-08-06T07:40:16;97949.56;;;31.97;100.00
56912;BME280;42800;53.928;27.662;2023-08-06T07:42:42;97913.75;;;31.80;100.00
56912;BME280;42800;53.928;27.662;2023-08-06T07:45:11;98008.19;;;33.06;100.00
56912;BME280;42800;53.928;27.662;2023-08-06T07:47:37;97983.06;;;32.84;100.00
56912;BME280;42800;53.928;27.662;2023-08-06T07:50:04;97923.50;;;31.98;100.00
56912;BME280;42800;53.928;27.662;2023-08-06T07:52:30;97946.84;;;32.04;100.00
56912;BME280;42800;53.928;27.662;2023-08-06T07:54:56;97890.84;;;32.24;100.00
56912;BME280;42800;53.928;27.662;2023-08-06T07:57:22;97989.59;;;32.52;100.00
56912;BME280;42800;53.928;27.662;2023-08-06T07:59:48;97981.41;;;33.15;100.00
56912;BME280;42800;53.928;27.662;2023-08-06T08:02:14;97936.88;;;32.83;100.00
56912;BME280;42800;53.928;27.662;2023-08-06T08:04:40;97861.53;;;31.62;100.00
56912;BME280;42800;53.928;27.662;2023-08-06T08:07:06;97927.84;;;32.45;100.00
56912;BME280;42800;53.928;27.662;2023-08-06T08:09:34;97945.84;;;32.61;100.00
56912;BME280;42800;53.928;27.662;2023-08-06T08:12:03;97991.16;;;33.06;100.00
56912;BME280;42800;53.928;27.662;2023-08-06T08:14:29;97986.44;;;32.69;100.00
56912;BME280;42800;53.928;27.662;2023-08-06T08:17:00;97934.72;;;32.76;100.00
56912;BME280;42800;53.928;27.662;2023-08-06T08:19:26;97966.22;;;33.12;100.00
56912;BME280;42800;53.928;27.662;2023-08-06T08:21:53;97976.00;;;33.72;100.00
56912;BME280;42800;53.928;27.662;2023-08-06T08:24:19;98046.78;;;33.62;100.00
56912;BME280;42800;53.928;27.662;2023-08-06T08:26:45;97998.78;;;33.93;100.00
56912;BME280;42800;53.928;27.662;2023-08-06T08:29:12;97981.97;;;32.87;100.00
56912;BME280;42800;53.928;27.662;2023-08-06T08:31:38;97948.09;;;32.89;100.00
56912;BME280;42800;53.928;27.662;2023-08-06T08:34:04;97957.06;;;33.19;100.00
56912;BME280;42800;53.928;27.662;2023-08-06T08:36:31;97955.91;;;33.36;100.00
56912;BME280;42800;53.928;27.662;2023-08-06T08:38:57;97955.00;;;32.80;100.00
56912;BME280;42800;53.928;27.662;2023-08-06T08:41:23;97985.78;;;33.16;100.00
56912;BME280;42800;53.928;27.662;2023-08-06T08:43:50;98003.69;;;32.84;100.00
56912;BME280;42800;53.928;27.662;2023-08-06T08:46:17;97951.56;;;33.21;100.00
56912;BME280;42800;53.928;27.662;2023-08-06T08:48:47;98003.31;;;33.41;100.00
56912;BME280;42800;53.928;27.662;2023-08-06T08:51:13;97978.47;;;32.94;100.00
56912;BME280;42800;53.928;27.662;2023-08-06T08:53:39;97959.09;;;33.19;100.00
56912;BME280;42800;53.928;27.662;2023-08-06T08:56:05;97994.47;;;33.31;100.00
56912;BME280;42800;53.928;27.662;2023-08-06T08:58:32;97969.53;;;33.03;100.00
56912;BME280;42800;53.928;27.662;2023-08-06T09:00:58;98003.16;;;34.15;100.00
56912;BME280;42800;53.928;27.662;2023-08-06T09:03:25;97956.50;;;33.55;100.00
56912;BME280;42800;53.928;27.662;2023-08-06T09:05:53;97942.78;;;32.45;100.00
56912;BME280;42800;53.928;27.662;2023-08-06T09:08:27;97943.88;;;32.69;100.00
56912;BME280;42800;53.928;27.662;2023-08-06T09:10:53;97924.78;;;32.69;100.00
56912;BME280;42800;53.928;27.662;2023-08-06T09:13:20;97966.25;;;33.60;100.00
56912;BME280;42800;53.928;27.662;2023-08-06T09:15:46;98017.38;;;34.15;100.00
56912;BME280;42800;53.928;27.662;2023-08-06T09:18:12;98001.53;;;33.03;100.00
56912;BME280;42800;53.928;27.662;2023-08-06T09:20:39;97993.16;;;33.32;100.00
56912;BME280;42800;53.928;27.662;2023-08-06T09:23:07;97961.59;;;33.36;100.00
56912;BME280;42800;53.928;27.662;2023-08-06T09:25:33;97952.84;;;32.60;100.00
56912;BME280;42800;53.928;27.662;2023-08-06T09:28:02;97903.06;;;32.45;100.00
56912;BME280;42800;53.928;27.662;2023-08-06T09:30:30;97954.78;;;33.04;100.00
56912;BME280;42800;53.928;27.662;2023-08-06T09:32:57;97950.84;;;32.81;100.00
56912;BME280;42800;53.928;27.662;2023-08-06T09:35:23;97959.81;;;32.72;100.00
56912;BME280;42800;53.928;27.662;2023-08-06T09:37:50;97954.84;;;32.06;100.00
56912;BME280;42800;53.928;27.662;2023-08-06T09:40:26;97957.69;;;33.12;100.00
56912;BME280;42800;53.928;27.662;2023-08-06T09:42:53;97962.94;;;32.95;100.00
56912;BME280;42800;53.928;27.662;2023-08-06T09:45:19;97919.34;;;32.58;100.00
56912;BME280;42800;53.928;27.662;2023-08-06T09:47:47;97937.44;;;32.55;100.00
56912;BME280;42800;53.928;27.662;2023-08-06T09:50:15;97892.25;;;32.30;100.00
56912;BME280;42800;53.928;27.662;2023-08-06T09:52:42;97901.09;;;32.67;100.00
56912;BME280;42800;53.928;27.662;2023-08-06T09:55:10;97922.41;;;32.47;100.00
56912;BME280;42800;53.928;27.662;2023-08-06T09:57:37;97886.59;;;32.30;100.00
56912;BME280;42800;53.928;27.662;2023-08-06T10:00:05;97906.78;;;32.53;100.00
56912;BME280;42800;53.928;27.662;2023-08-06T10:02:33;97920.06;;;32.72;100.00
56912;BME280;42800;53.928;27.662;2023-08-06T10:05:00;97921.91;;;33.09;100.00
56912;BME280;42800;53.928;27.662;2023-08-06T10:07:26;97899.59;;;32.52;100.00
56912;BME280;42800;53.928;27.662;2023-08-06T10:09:52;97904.03;;;32.88;100.00
56912;BME280;42800;53.928;27.662;2023-08-06T10:12:19;97882.88;;;32.22;100.00
56912;BME280;42800;53.928;27.662;2023-08-06T10:14:46;97885.59;;;32.15;100.00
56912;BME280;42800;53.928;27.662;2023-08-06T10:17:17;97913.53;;;32.37;100.00
56912;BME280;42800;53.928;27.662;2023-08-06T10:19:43;97869.16;;;32.26;100.00
56912;BME280;42800;53.928;27.662;2023-08-06T10:22:12;97848.53;;;32.52;100.00
56912;BME280;42800;53.928;27.662;2023-08-06T10:24:46;97871.03;;;32.98;100.00
56912;BME280;42800;53.928;27.662;2023-08-06T10:27:20;97915.22;;;33.75;100.00
56912;BME280;42800;53.928;27.662;2023-08-06T10:29:46;97963.72;;;32.55;100.00
56912;BME280;42800;53.928;27.662;2023-08-06T10:32:12;97907.19;;;32.04;100.00
56912;BME280;42800;53.928;27.662;2023-08-06T10:34:57;97903.63;;;32.57;100.00
56912;BME280;42800;53.928;27.662;2023-08-06T10:37:23;97926.56;;;32.59;100.00
56912;BME280;42800;53.928;27.662;2023-08-06T10:39:50;97910.59;;;32.96;100.00
56912;BME280;42800;53.928;27.662;2023-08-06T10:42:21;97926.97;;;32.76;100.00
56912;BME280;42800;53.928;27.662;2023-08-06T10:45:12;97934.22;;;33.12;100.00
56912;BME280;42800;53.928;27.662;2023-08-06T10:47:39;97919.34;;;33.19;100.00
56912;BME280;42800;53.928;27.662;2023-08-06T10:50:06;97906.94;;;32.95;100.00
56912;BME280;42800;53.928;27.662;2023-08-06T10:52:33;97900.31;;;33.06;100.00
56912;BME280;42800;53.928;27.662;2023-08-06T10:54:59;97897.25;;;33.04;100.00
56912;BME280;42800;53.928;27.662;2023-08-06T10:57:26;97871.88;;;32.58;100.00
56912;BME280;42800;53.928;27.662;2023-08-06T10:59:51;97868.09;;;32.43;100.00
56912;BME280;42800;53.928;27.662;2023-08-06T11:02:17;97858.16;;;32.49;100.00
56912;BME280;42800;53.928;27.662;2023-08-06T11:04:43;97864.56;;;32.23;100.00
56912;BME280;42800;53.928;27.662;2023-08-06T11:07:09;97852.78;;;32.06;100.00
56912;BME280;42800;53.928;27.662;2023-08-06T11:09:35;97871.00;;;31.65;100.00
56912;BME280;42800;53.928;27.662;2023-08-06T11:12:04;97856.16;;;31.27;100.00
56912;BME280;42800;53.928;27.662;2023-08-06T11:14:32;97837.72;;;31.20;100.00
56912;BME280;42800;53.928;27.662;2023-08-06T11:16:58;97790.63;;;31.04;100.00
56912;BME280;42800;53.928;27.662;2023-08-06T11:19:24;97817.84;;;31.07;100.00
56912;BME280;42800;53.928;27.662;2023-08-06T11:21:51;97786.97;;;30.90;100.00
56912;BME280;42800;53.928;27.662;2023-08-06T11:24:17;97804.19;;;31.24;100.00
56912;BME280;42800;53.928;27.662;2023-08-06T11:26:43;97775.97;;;31.51;100.00
56912;BME280;42800;53.928;27.662;2023-08-06T11:29:09;97757.34;;;31.55;100.00
56912;BME280;42800;53.928;27.662;2023-08-06T11:31:36;97800.72;;;31.63;100.00
56912;BME280;42800;53.928;27.662;2023-08-06T11:34:02;97760.06;;;31.15;100.00
56912;BME280;42800;53.928;27.662;2023-08-06T11:36:29;97753.16;;;30.98;100.00
56912;BME280;42800;53.928;27.662;2023-08-06T11:38:55;97740.78;;;30.82;100.00
56912;BME280;42800;53.928;27.662;2023-08-06T11:41:21;97725.72;;;30.92;100.00
56912;BME280;42800;53.928;27.662;2023-08-06T11:43:47;97711.16;;;31.02;100.00
56912;BME280;42800;53.928;27.662;2023-08-06T11:46:13;97744.03;;;31.37;100.00
56912;BME280;42800;53.928;27.662;2023-08-06T11:48:51;97752.03;;;30.87;100.00
56912;BME280;42800;53.928;27.662;2023-08-06T11:51:17;97713.19;;;30.88;100.00
56912;BME280;42800;53.928;27.662;2023-08-06T11:53:48;97713.59;;;31.24;100.00
56912;BME280;42800;53.928;27.662;2023-08-06T11:56:14;97744.56;;;31.35;100.00
56912;BME280;42800;53.928;27.662;2023-08-06T11:58:41;97761.97;;;31.26;100.00
56912;BME280;42800;53.928;27.662;2023-08-06T12:01:08;97730.97;;;31.02;100.00
56912;BME280;42800;53.928;27.662;2023-08-06T12:03:39;97726.53;;;31.06;100.00
56912;BME280;42800;53.928;27.662;2023-08-06T12:06:05;97729.06;;;31.23;100.00
56912;BME280;42800;53.928;27.662;2023-08-06T12:08:34;97715.50;;;30.89;100.00
56912;BME280;42800;53.928;27.662;2023-08-06T12:11:02;97712.25;;;31.12;100.00
56912;BME280;42800;53.928;27.662;2023-08-06T12:13:28;97695.38;;;30.93;100.00
56912;BME280;42800;53.928;27.662;2023-08-06T12:15:54;97715.63;;;30.97;100.00
56912;BME280;42800;53.928;27.662;2023-08-06T12:18:22;97672.91;;;30.82;100.00
56912;BME280;42800;53.928;27.662;2023-08-06T12:20:48;97695.28;;;31.12;100.00
56912;BME280;42800;53.928;27.662;2023-08-06T12:23:15;97717.28;;;31.06;100.00
56912;BME280;42800;53.928;27.662;2023-08-06T12:25:41;97702.84;;;30.90;100.00
56912;BME280;42800;53.928;27.662;2023-08-06T12:28:07;97688.78;;;31.17;100.00
56912;BME280;42800;53.928;27.662;2023-08-06T12:30:33;97713.78;;;31.00;100.00
56912;BME280;42800;53.928;27.662;2023-08-06T12:32:59;97696.94;;;31.21;100.00
56912;BME280;42800;53.928;27.662;2023-08-06T12:35:25;97715.38;;;30.95;100.00
56912;BME280;42800;53.928;27.662;2023-08-06T12:37:53;97709.09;;;31.02;100.00